Historique des mesures à Cassis (13260), France
Quotidien Résumé Fevrier 2, 2018 Unités:  Métrique/US    US   Métrique
« Précédent (Jour)
Suivant (Jour) »
Quotidien Hebdomadaire Mensuel Annuel Période au choix
  Maximum: Minimum: Moyenne:
Température: TemperatureC °F /  -17.8 °C 5.6 °F /  -14.7 °C 7.2 °F /  -13.8 °C
Point de rosée: DewpointC °F /  -17.8 °C -2.9 °F /  -19.4 °C -0.8 °F /  -18.2 °C
Humidité: Humidity % 50 % 53 %
Vitesse du vent: WindSpeedKMH mph /  0 km/h - 6.5 mph /  10.5 km/h
Rafales: WindSpeedGustKMH mph /  0 km/h - -
Vent:- - WSW
Pression: PressurehPa in /  0 hPa 998.9 in /  33822.8 hPa -
Précipitations: 0.0 in /  0 mm    
Historical Graphs
 
 
Mesures pour : Fevrier 2, 2018
Heure Temperature Point de rosée Pression Vent Vitesse du vent Rafales Humidité Pluie (par heure) Conditions
TemperatureC °F /  -17.8 °C DewpointC °F /  -17.8 °C PressurehPa in /  0 hPa Calm     Humidity % HourlyPrecipMM in /  0 mm SoftwareType W/m2
00:12 7.8 °F /  -13.4 °C 0.9 °F /  -17.3 °C 1000.2 in /  33866.8 hPa NW 6.8 mph /  10.9 km/h 6.8 mph /  10.9 km/h 62 % 0.0 in /  0 mm open2300-1.11 W/m2
01:12 7.9 °F /  -13.4 °C 0.1 °F /  -17.7 °C 999.5 in /  33843.1 hPa West 10.5 mph /  16.9 km/h 11.1 mph /  17.9 km/h 58 % 0.0 in /  0 mm open2300-1.11 W/m2
02:12 7.5 °F /  -13.6 °C -1.0 °F /  -18.3 °C 999.2 in /  33832.9 hPa WNW 14.3 mph /  23 km/h 14.3 mph /  23 km/h 55 % 0.0 in /  0 mm open2300-1.11 W/m2
03:12 7.0 °F /  -13.9 °C -1.7 °F /  -18.7 °C 999.2 in /  33832.9 hPa NNW 4.0 mph /  6.4 km/h 5.0 mph /  8 km/h 54 % 0.0 in /  0 mm open2300-1.11 W/m2
04:12 5.8 °F /  -14.6 °C -1.2 °F /  -18.4 °C 999.2 in /  33832.9 hPa NW 4.7 mph /  7.6 km/h 6.4 mph /  10.3 km/h 61 % 0.0 in /  0 mm open2300-1.11 W/m2
05:12 5.9 °F /  -14.5 °C -1.1 °F /  -18.4 °C 999.2 in /  33832.9 hPa Calm   2.1 mph /  3.4 km/h 61 % 0.0 in /  0 mm open2300-1.11 W/m2
06:12 5.9 °F /  -14.5 °C -1.3 °F /  -18.5 °C 999.5 in /  33843.1 hPa West 2.6 mph /  4.2 km/h 2.6 mph /  4.2 km/h 60 % 0.0 in /  0 mm open2300-1.11 W/m2
07:12 5.6 °F /  -14.7 °C -1.6 °F /  -18.7 °C 999.5 in /  33843.1 hPa North 4.0 mph /  6.4 km/h 7.6 mph /  12.2 km/h 60 % 0.0 in /  0 mm open2300-1.11 W/m2
08:12 5.9 °F /  -14.5 °C -1.8 °F /  -18.8 °C 999.2 in /  33832.9 hPa Calm   8.7 mph /  14 km/h 58 % 0.0 in /  0 mm open2300-1.11 W/m2
09:12 6.4 °F /  -14.2 °C -1.6 °F /  -18.7 °C 999.5 in /  33843.1 hPa Calm     57 % 0.0 in /  0 mm open2300-1.11 W/m2
11:12 7.4 °F /  -13.7 °C -1.6 °F /  -18.7 °C 999.9 in /  33856.6 hPa North 2.6 mph /  4.2 km/h 11.9 mph /  19.2 km/h 53 % 0.0 in /  0 mm open2300-1.11 W/m2
12:12 7.9 °F /  -13.4 °C -0.9 °F /  -18.3 °C 1000.2 in /  33866.8 hPa WSW 13.0 mph /  20.9 km/h 13.0 mph /  20.9 km/h 54 % 0.0 in /  0 mm open2300-1.11 W/m2
13:12 8.9 °F /  -12.8 °C -0.2 °F /  -17.9 °C 999.2 in /  33832.9 hPa NNW 8.7 mph /  14 km/h 15.1 mph /  24.3 km/h 53 % 0.0 in /  0 mm open2300-1.11 W/m2
14:12 8.9 °F /  -12.8 °C 0.3 °F /  -17.6 °C 998.9 in /  33822.8 hPa NNW 2.9 mph /  4.7 km/h 4.0 mph /  6.4 km/h 55 % 0.0 in /  0 mm open2300-1.11 W/m2
15:12 9.0 °F /  -12.8 °C 0.9 °F /  -17.3 °C 998.9 in /  33822.8 hPa NNE 6.4 mph /  10.3 km/h 15.8 mph /  25.4 km/h 57 % 0.0 in /  0 mm open2300-1.11 W/m2
16:12 9.3 °F /  -12.6 °C 0.9 °F /  -17.3 °C 998.9 in /  33822.8 hPa West 5.5 mph /  8.9 km/h 5.5 mph /  8.9 km/h 56 % 0.0 in /  0 mm open2300-1.11 W/m2
17:12 9.1 °F /  -12.7 °C 0.5 °F /  -17.5 °C 998.9 in /  33822.8 hPa West 6.1 mph /  9.8 km/h 6.1 mph /  9.8 km/h 55 % 0.0 in /  0 mm open2300-1.11 W/m2
18:12 8.6 °F /  -13 °C 0.3 °F /  -17.6 °C 999.2 in /  33832.9 hPa NNW 7.6 mph /  12.2 km/h 11.1 mph /  17.9 km/h 56 % 0.0 in /  0 mm open2300-1.11 W/m2
19:12 8.3 °F /  -13.2 °C -0.5 °F /  -18.1 °C 999.2 in /  33832.9 hPa NW 10.1 mph /  16.3 km/h 22.7 mph /  36.5 km/h 54 % 0.0 in /  0 mm open2300-1.11 W/m2
20:12 8.3 °F /  -13.2 °C -1.6 °F /  -18.7 °C 999.5 in /  33843.1 hPa Calm   8.7 mph /  14 km/h 50 % 0.0 in /  0 mm open2300-1.11 W/m2
21:12 7.6 °F /  -13.6 °C -1.9 °F /  -18.8 °C 999.2 in /  33832.9 hPa WNW 14.3 mph /  23 km/h 20.9 mph /  33.6 km/h 51 % 0.0 in /  0 mm open2300-1.11 W/m2
22:12 6.9 °F /  -13.9 °C -2.6 °F /  -19.2 °C 998.9 in /  33822.8 hPa NW 7.6 mph /  12.2 km/h 7.6 mph /  12.2 km/h 51 % 0.0 in /  0 mm open2300-1.11 W/m2
23:12 6.5 °F /  -14.2 °C -2.9 °F /  -19.4 °C 999.2 in /  33832.9 hPa WNW 23.3 mph /  37.5 km/h 23.3 mph /  37.5 km/h 51 % 0.0 in /  0 mm open2300-1.11 W/m2
Observations météo à CASSIS
WU-History script by Weather Underground - 1 mb